Time;durP1;ratioP1;P1;durP2;ratioP2;P2;SDS_P1;SDS_P2;PMS_P1;PMS_P2;Temp;Humidity;BMP_temperature;BMP_pressure;BME280_temperature;BME280_humidity;BME280_pressure;Samples;Min_cycle;Max_cycle;Signal;HPM_P1;HPM_P2
2023/03/17 00:00:59;;;;;;;4.93;1.92;;;;;;;;;;5005652;28;20805;-80
2023/03/17 00:03:33;;;;;;;5.82;2.00;;;;;;;;;;4997119;28;20417;-79
2023/03/17 00:06:10;;;;;;;6.45;2.00;;;;;;;;;;4999929;28;20439;-80
2023/03/17 00:08:38;;;;;;;5.47;2.10;;;;;;;;;;5002961;28;20428;-81
2023/03/17 00:11:11;;;;;;;6.03;2.00;;;;;;;;;;4999975;28;20418;-80
2023/03/17 00:13:40;;;;;;;5.50;2.03;;;;;;;;;;4997308;28;20409;-80
2023/03/17 00:16:12;;;;;;;6.55;1.95;;;;;;;;;;5014479;28;20434;-80
2023/03/17 00:18:45;;;;;;;6.10;2.03;;;;;;;;;;5006888;28;20426;-80
2023/03/17 00:21:15;;;;;;;6.40;2.00;;;;;;;;;;5001052;28;20790;-81
2023/03/17 00:23:49;;;;;;;4.82;1.95;;;;;;;;;;4997732;28;20447;-80
2023/03/17 00:26:23;;;;;;;6.25;2.20;;;;;;;;;;5002798;28;21141;-81
2023/03/17 00:28:55;;;;;;;7.38;2.08;;;;;;;;;;4999562;28;20430;-81
2023/03/17 00:31:29;;;;;;;5.30;2.13;;;;;;;;;;5015396;28;20856;-80
2023/03/17 00:34:02;;;;;;;5.63;1.90;;;;;;;;;;5000982;28;20433;-80
2023/03/17 00:36:33;;;;;;;4.75;1.95;;;;;;;;;;5001438;28;20426;-81
2023/03/17 00:39:10;;;;;;;6.05;2.20;;;;;;;;;;5003945;28;20439;-79
2023/03/17 00:41:43;;;;;;;7.20;2.60;;;;;;;;;;4999531;28;20756;-81
2023/03/17 00:44:16;;;;;;;7.55;2.40;;;;;;;;;;5006227;28;20947;-81
2023/03/17 00:46:49;;;;;;;5.90;2.20;;;;;;;;;;5000356;28;20432;-81
2023/03/17 00:49:23;;;;;;;4.60;2.03;;;;;;;;;;5000993;28;20426;-80
2023/03/17 00:51:53;;;;;;;5.75;2.25;;;;;;;;;;5007951;28;20421;-80
2023/03/17 00:54:22;;;;;;;6.88;2.15;;;;;;;;;;5006877;28;20433;-81
2023/03/17 00:56:55;;;;;;;6.25;2.10;;;;;;;;;;5001377;28;20428;-81
2023/03/17 00:59:29;;;;;;;6.13;2.07;;;;;;;;;;5001953;28;20426;-81
2023/03/17 01:02:02;;;;;;;4.80;2.23;;;;;;;;;;5019085;28;21318;-80
2023/03/17 01:04:35;;;;;;;5.38;2.17;;;;;;;;;;5009560;28;20443;-81
2023/03/17 01:07:10;;;;;;;5.30;2.22;;;;;;;;;;5006561;28;20426;-80
2023/03/17 01:09:46;;;;;;;7.53;2.50;;;;;;;;;;5017151;28;20918;-80
2023/03/17 01:12:19;;;;;;;6.95;2.10;;;;;;;;;;5018178;28;20436;-80
2023/03/17 01:14:49;;;;;;;6.97;2.23;;;;;;;;;;5018139;28;20518;-81
2023/03/17 01:17:21;;;;;;;6.13;2.17;;;;;;;;;;5010906;28;20447;-80
2023/03/17 01:19:49;;;;;;;5.90;2.30;;;;;;;;;;5009717;28;20755;-79
2023/03/17 01:22:19;;;;;;;8.07;2.70;;;;;;;;;;5008574;28;20453;-79
2023/03/17 01:24:52;;;;;;;5.87;2.50;;;;;;;;;;5017478;28;20804;-80
2023/03/17 01:27:20;;;;;;;6.88;2.42;;;;;;;;;;5001460;28;20437;-80
2023/03/17 01:29:53;;;;;;;5.73;2.30;;;;;;;;;;5003832;28;20441;-81
2023/03/17 01:32:21;;;;;;;6.00;2.40;;;;;;;;;;5002990;28;20882;-80
2023/03/17 01:34:54;;;;;;;7.93;2.40;;;;;;;;;;5001619;28;20424;-80
2023/03/17 01:37:28;;;;;;;7.28;2.55;;;;;;;;;;5004614;28;20421;-80
2023/03/17 01:40:01;;;;;;;5.78;2.40;;;;;;;;;;5003533;28;20439;-80
2023/03/17 01:42:34;;;;;;;8.13;2.70;;;;;;;;;;5017539;28;20436;-80
2023/03/17 01:45:09;;;;;;;6.45;2.42;;;;;;;;;;5002424;28;20432;-80
2023/03/17 01:47:36;;;;;;;6.70;2.90;;;;;;;;;;5016981;28;20432;-80
2023/03/17 01:50:09;;;;;;;6.93;2.70;;;;;;;;;;5009617;28;20796;-80
2023/03/17 01:52:43;;;;;;;5.88;2.35;;;;;;;;;;5003602;28;20433;-80
2023/03/17 01:55:17;;;;;;;6.18;2.85;;;;;;;;;;5018938;28;20430;-81
2023/03/17 01:57:52;;;;;;;8.33;2.60;;;;;;;;;;5004902;28;20489;-80
2023/03/17 02:00:25;;;;;;;7.18;2.85;;;;;;;;;;5018429;28;20434;-81
2023/03/17 02:02:54;;;;;;;6.82;2.65;;;;;;;;;;5009762;28;20433;-81
2023/03/17 02:05:23;;;;;;;7.47;2.95;;;;;;;;;;5000978;28;20410;-80
2023/03/17 02:07:52;;;;;;;4.70;2.22;;;;;;;;;;5009259;28;20421;-81
2023/03/17 02:10:28;;;;;;;7.55;2.70;;;;;;;;;;5007708;28;20418;-80
2023/03/17 02:13:04;;;;;;;6.60;2.65;;;;;;;;;;5007710;28;20430;-80
2023/03/17 02:15:38;;;;;;;6.63;2.80;;;;;;;;;;5001262;28;20454;-81
2023/03/17 02:18:12;;;;;;;8.45;2.72;;;;;;;;;;5007628;28;20433;-81
2023/03/17 02:21:14;;;;;;;8.10;2.53;;;;;;;;;;5019143;28;20424;-80
2023/03/17 02:23:43;;;;;;;7.10;2.67;;;;;;;;;;5004211;28;20489;-80
2023/03/17 02:26:16;;;;;;;5.55;2.60;;;;;;;;;;5001950;28;20440;-80
2023/03/17 02:28:49;;;;;;;6.32;2.75;;;;;;;;;;5003590;28;20426;-80
2023/03/17 02:31:18;;;;;;;7.40;2.97;;;;;;;;;;5001601;28;20420;-79
2023/03/17 02:33:45;;;;;;;6.72;2.88;;;;;;;;;;5022294;28;20746;-80
2023/03/17 02:36:19;;;;;;;6.85;2.63;;;;;;;;;;5001949;28;20424;-80
2023/03/17 02:38:53;;;;;;;9.20;3.08;;;;;;;;;;5001244;28;20430;-80
2023/03/17 02:41:30;;;;;;;7.03;2.90;;;;;;;;;;5003231;28;20432;-80
2023/03/17 02:44:02;;;;;;;6.10;2.65;;;;;;;;;;5000426;28;20440;-80
2023/03/17 02:46:35;;;;;;;7.45;3.25;;;;;;;;;;4999157;28;20422;-80
2023/03/17 02:49:08;;;;;;;7.13;3.00;;;;;;;;;;5017781;28;20437;-80
2023/03/17 02:51:41;;;;;;;7.88;3.08;;;;;;;;;;5009248;28;20765;-81
2023/03/17 02:54:11;;;;;;;7.80;3.10;;;;;;;;;;5001188;28;20897;-80
2023/03/17 02:56:43;;;;;;;6.97;3.00;;;;;;;;;;5004097;28;20684;-81
2023/03/17 02:59:11;;;;;;;8.50;2.80;;;;;;;;;;4999454;28;20412;-80
2023/03/17 03:01:47;;;;;;;5.88;2.90;;;;;;;;;;5007957;28;20436;-80
2023/03/17 03:04:20;;;;;;;8.77;2.97;;;;;;;;;;5000835;28;20416;-80
2023/03/17 03:06:53;;;;;;;8.07;2.95;;;;;;;;;;5001859;28;20431;-80
2023/03/17 03:09:23;;;;;;;7.70;2.83;;;;;;;;;;5001587;28;20781;-80
2023/03/17 03:11:51;;;;;;;6.60;2.90;;;;;;;;;;4999582;28;20440;-80
2023/03/17 03:14:24;;;;;;;8.52;3.50;;;;;;;;;;5002778;28;20437;-80
2023/03/17 03:16:51;;;;;;;7.47;3.47;;;;;;;;;;5007047;28;20414;-80
2023/03/17 03:19:19;;;;;;;8.02;2.90;;;;;;;;;;5001016;28;20442;-80
2023/03/17 03:21:52;;;;;;;7.70;3.35;;;;;;;;;;5001296;28;20426;-79
2023/03/17 03:24:26;;;;;;;7.53;3.05;;;;;;;;;;5002368;28;20443;-80
2023/03/17 03:26:54;;;;;;;7.68;3.05;;;;;;;;;;5002797;28;20441;-81
2023/03/17 03:29:22;;;;;;;8.00;3.20;;;;;;;;;;5002324;28;20420;-81
2023/03/17 03:31:55;;;;;;;7.43;3.15;;;;;;;;;;5001078;28;20434;-81
2023/03/17 03:34:28;;;;;;;6.40;2.65;;;;;;;;;;5017270;28;20426;-81
2023/03/17 03:36:55;;;;;;;6.47;2.80;;;;;;;;;;5002272;28;20445;-81
2023/03/17 03:39:29;;;;;;;8.60;3.10;;;;;;;;;;5007998;28;20428;-80
2023/03/17 03:41:57;;;;;;;8.63;3.10;;;;;;;;;;5002186;28;20428;-80
2023/03/17 03:44:25;;;;;;;6.70;3.10;;;;;;;;;;5002210;28;20418;-80
2023/03/17 03:46:58;;;;;;;8.48;3.10;;;;;;;;;;4999603;28;20417;-80
2023/03/17 03:49:30;;;;;;;8.07;3.10;;;;;;;;;;5017800;28;20437;-80
2023/03/17 03:51:59;;;;;;;7.32;3.10;;;;;;;;;;4999238;28;20418;-80
2023/03/17 03:54:26;;;;;;;7.35;3.08;;;;;;;;;;5002156;28;20418;-80
2023/03/17 03:57:00;;;;;;;7.47;3.33;;;;;;;;;;5001500;28;20495;-81
2023/03/17 03:59:33;;;;;;;7.47;3.15;;;;;;;;;;5000530;28;20426;-79
2023/03/17 04:02:06;;;;;;;8.00;3.10;;;;;;;;;;5000373;28;20442;-80
2023/03/17 04:04:34;;;;;;;8.83;2.97;;;;;;;;;;5002395;28;20800;-80
2023/03/17 04:07:08;;;;;;;7.05;3.25;;;;;;;;;;5006635;28;20427;-80
2023/03/17 04:09:41;;;;;;;8.57;3.33;;;;;;;;;;5013980;28;20438;-80
2023/03/17 04:12:15;;;;;;;7.20;3.45;;;;;;;;;;5001818;28;20423;-79
2023/03/17 04:14:48;;;;;;;7.80;3.42;;;;;;;;;;5000039;28;20420;-81
2023/03/17 04:17:16;;;;;;;6.85;3.65;;;;;;;;;;4999132;28;20440;-80
2023/03/17 04:19:43;;;;;;;6.20;3.30;;;;;;;;;;5006685;28;20482;-81
2023/03/17 04:22:12;;;;;;;6.97;3.47;;;;;;;;;;5000606;28;20458;-80
2023/03/17 04:24:40;;;;;;;8.57;3.27;;;;;;;;;;5012739;28;20438;-81
2023/03/17 04:27:09;;;;;;;9.23;3.60;;;;;;;;;;5000598;28;20430;-80
2023/03/17 04:29:43;;;;;;;10.70;3.70;;;;;;;;;;4996799;28;20439;-80
2023/03/17 04:32:16;;;;;;;8.80;3.57;;;;;;;;;;4999878;28;20488;-80
2023/03/17 04:34:49;;;;;;;11.43;3.40;;;;;;;;;;5004069;28;20460;-80
2023/03/17 04:37:17;;;;;;;10.65;4.20;;;;;;;;;;5021850;28;20750;-80
2023/03/17 04:39:50;;;;;;;10.98;5.43;;;;;;;;;;5006008;28;20440;-81
2023/03/17 04:42:18;;;;;;;8.85;3.90;;;;;;;;;;5011148;28;20424;-81
2023/03/17 04:44:52;;;;;;;8.43;3.60;;;;;;;;;;5004621;28;20437;-80
2023/03/17 04:47:20;;;;;;;8.35;3.97;;;;;;;;;;5003143;28;20418;-80
2023/03/17 04:49:48;;;;;;;8.43;3.75;;;;;;;;;;5002344;28;20445;-80
2023/03/17 04:52:20;;;;;;;8.07;3.72;;;;;;;;;;5010174;28;20427;-80
2023/03/17 04:54:53;;;;;;;8.15;3.42;;;;;;;;;;5005414;28;20423;-81
2023/03/17 04:57:26;;;;;;;7.20;3.80;;;;;;;;;;5002579;28;20894;-80
2023/03/17 04:59:57;;;;;;;9.73;3.55;;;;;;;;;;5019343;28;22453;-81
2023/03/17 05:02:25;;;;;;;9.93;4.00;;;;;;;;;;5021445;28;20433;-80
2023/03/17 05:04:57;;;;;;;7.70;3.50;;;;;;;;;;5019666;28;20889;-80
2023/03/17 05:07:30;;;;;;;8.45;3.90;;;;;;;;;;5000312;28;20424;-80
2023/03/17 05:09:58;;;;;;;10.00;3.45;;;;;;;;;;5004745;28;20425;-80
2023/03/17 05:12:26;;;;;;;9.88;4.22;;;;;;;;;;5020319;28;20418;-81
2023/03/17 05:15:00;;;;;;;9.50;4.53;;;;;;;;;;5003863;28;20435;-81
2023/03/17 05:17:28;;;;;;;9.00;3.60;;;;;;;;;;5004685;28;20424;-80
2023/03/17 05:20:00;;;;;;;8.63;3.67;;;;;;;;;;5020436;28;20900;-81
2023/03/17 05:22:33;;;;;;;9.23;3.90;;;;;;;;;;5011262;28;20473;-80
2023/03/17 05:25:06;;;;;;;9.07;3.80;;;;;;;;;;5003760;28;20427;-81
2023/03/17 05:27:39;;;;;;;9.55;4.28;;;;;;;;;;5005394;28;20406;-80
2023/03/17 05:30:14;;;;;;;7.95;3.70;;;;;;;;;;5020942;28;20434;-80
2023/03/17 05:32:42;;;;;;;9.70;4.17;;;;;;;;;;5019834;28;20426;-81
2023/03/17 05:35:15;;;;;;;8.60;3.87;;;;;;;;;;5003694;28;20430;-80
2023/03/17 05:37:42;;;;;;;8.98;3.60;;;;;;;;;;5020310;28;20422;-80
2023/03/17 05:40:11;;;;;;;8.43;3.75;;;;;;;;;;5005540;28;20431;-80
2023/03/17 05:42:38;;;;;;;9.50;3.97;;;;;;;;;;5000642;28;20425;-80
2023/03/17 05:45:07;;;;;;;10.10;3.70;;;;;;;;;;5002323;28;20421;-80
2023/03/17 05:47:41;;;;;;;8.70;3.70;;;;;;;;;;5001250;28;20439;-81
2023/03/17 05:50:14;;;;;;;6.93;3.43;;;;;;;;;;5004101;28;20437;-80
2023/03/17 05:52:42;;;;;;;8.88;3.95;;;;;;;;;;5003458;28;20427;-81
2023/03/17 05:55:16;;;;;;;8.32;3.60;;;;;;;;;;5001799;28;20439;-80
2023/03/17 05:57:44;;;;;;;7.55;3.35;;;;;;;;;;5003625;28;20924;-81
2023/03/17 06:00:14;;;;;;;8.50;3.93;;;;;;;;;;5014669;28;20468;-82
2023/03/17 06:02:44;;;;;;;11.90;3.60;;;;;;;;;;4998849;28;20533;-81
2023/03/17 06:05:17;;;;;;;9.38;3.70;;;;;;;;;;5006996;28;21126;-81
2023/03/17 06:07:49;;;;;;;7.30;3.55;;;;;;;;;;5000123;28;20413;-80
2023/03/17 06:10:23;;;;;;;8.27;3.75;;;;;;;;;;5000243;28;20756;-81
2023/03/17 06:12:50;;;;;;;9.30;3.63;;;;;;;;;;4999475;28;20418;-80
2023/03/17 06:15:18;;;;;;;9.23;4.13;;;;;;;;;;5002695;28;20449;-81
2023/03/17 06:17:52;;;;;;;8.77;4.35;;;;;;;;;;5020854;28;20437;-80
2023/03/17 06:20:25;;;;;;;8.80;4.15;;;;;;;;;;5004817;28;20956;-81
2023/03/17 06:22:58;;;;;;;9.48;4.50;;;;;;;;;;5007017;28;20455;-80
2023/03/17 06:25:31;;;;;;;9.88;4.70;;;;;;;;;;5015421;28;20438;-81
2023/03/17 06:28:01;;;;;;;9.57;4.10;;;;;;;;;;5015196;28;20481;-80
2023/03/17 06:30:35;;;;;;;12.10;4.93;;;;;;;;;;5014891;28;20430;-80
2023/03/17 06:33:09;;;;;;;9.82;4.22;;;;;;;;;;5003368;28;20441;-80
2023/03/17 06:35:41;;;;;;;8.32;3.90;;;;;;;;;;5004317;28;20452;-81
2023/03/17 06:38:14;;;;;;;10.20;4.40;;;;;;;;;;5016123;28;20780;-80
2023/03/17 06:40:47;;;;;;;9.65;4.07;;;;;;;;;;5001544;28;21097;-79
2023/03/17 06:43:16;;;;;;;8.27;4.15;;;;;;;;;;4999211;28;20424;-80
2023/03/17 06:45:44;;;;;;;8.82;4.10;;;;;;;;;;4999905;28;20429;-81
2023/03/17 06:48:13;;;;;;;9.85;4.45;;;;;;;;;;5014718;28;20430;-81
2023/03/17 06:50:40;;;;;;;9.18;4.00;;;;;;;;;;5002207;28;20916;-80
2023/03/17 06:53:08;;;;;;;9.10;4.30;;;;;;;;;;5002696;28;20413;-81
2023/03/17 06:55:36;;;;;;;12.70;4.22;;;;;;;;;;5002206;28;20429;-81
2023/03/17 06:58:04;;;;;;;8.82;3.75;;;;;;;;;;5015328;28;20436;-81
2023/03/17 07:00:38;;;;;;;8.50;3.67;;;;;;;;;;5000784;28;20442;-81
2023/03/17 07:03:13;;;;;;;9.30;4.35;;;;;;;;;;5003891;28;20432;-81
2023/03/17 07:05:46;;;;;;;9.50;3.80;;;;;;;;;;5000519;28;20441;-79
2023/03/17 07:08:14;;;;;;;8.48;4.25;;;;;;;;;;5018309;28;20438;-81
2023/03/17 07:10:43;;;;;;;8.63;3.95;;;;;;;;;;5012245;28;20434;-80
2023/03/17 07:13:11;;;;;;;8.02;4.13;;;;;;;;;;5008225;28;21274;-81
2023/03/17 07:15:38;;;;;;;7.95;4.20;;;;;;;;;;5000154;28;20431;-80
2023/03/17 07:18:13;;;;;;;7.88;3.70;;;;;;;;;;5000131;28;20438;-81
2023/03/17 07:20:41;;;;;;;11.30;5.40;;;;;;;;;;5003360;28;20537;-82
2023/03/17 07:23:09;;;;;;;10.13;4.25;;;;;;;;;;5014251;28;20440;-81
2023/03/17 07:25:39;;;;;;;10.52;4.07;;;;;;;;;;5000199;28;20452;-81
2023/03/17 07:28:11;;;;;;;8.93;3.85;;;;;;;;;;5006885;28;20431;-83
2023/03/17 07:30:45;;;;;;;8.55;3.60;;;;;;;;;;5004808;28;20438;-81
2023/03/17 07:33:16;;;;;;;7.60;3.80;;;;;;;;;;5006593;28;20430;-82
2023/03/17 07:35:44;;;;;;;8.77;3.88;;;;;;;;;;5015934;28;20431;-82
2023/03/17 07:38:17;;;;;;;7.55;3.35;;;;;;;;;;5014858;28;20436;-82
2023/03/17 07:40:46;;;;;;;8.02;3.60;;;;;;;;;;4997970;28;20436;-81
2023/03/17 07:43:19;;;;;;;9.38;3.70;;;;;;;;;;5001001;28;20441;-81
2023/03/17 07:45:47;;;;;;;8.53;3.80;;;;;;;;;;4997943;28;20868;-80
2023/03/17 07:48:21;;;;;;;9.53;3.80;;;;;;;;;;4998235;28;20428;-81
2023/03/17 07:50:49;;;;;;;7.13;3.60;;;;;;;;;;5013759;28;20437;-81
2023/03/17 07:53:17;;;;;;;9.32;3.78;;;;;;;;;;5018063;28;20442;-80
2023/03/17 07:55:45;;;;;;;8.77;3.60;;;;;;;;;;5011424;28;20434;-81
2023/03/17 07:58:18;;;;;;;7.78;3.63;;;;;;;;;;4997407;28;20920;-81
2023/03/17 08:00:50;;;;;;;8.13;3.95;;;;;;;;;;5011864;28;20442;-80
2023/03/17 08:03:25;;;;;;;9.60;4.18;;;;;;;;;;4998363;28;20897;-79
2023/03/17 08:05:54;;;;;;;8.23;3.70;;;;;;;;;;4995137;28;20428;-80
2023/03/17 08:08:22;;;;;;;7.75;3.63;;;;;;;;;;4998821;28;20453;-81
2023/03/17 08:10:49;;;;;;;8.93;3.63;;;;;;;;;;4998002;28;20807;-81
2023/03/17 08:13:23;;;;;;;8.63;4.00;;;;;;;;;;4997394;28;20445;-81
2023/03/17 08:15:56;;;;;;;8.25;3.55;;;;;;;;;;4989421;28;20417;-81
2023/03/17 08:18:28;;;;;;;9.38;3.75;;;;;;;;;;4976164;28;20463;-80
2023/03/17 08:21:01;;;;;;;8.90;3.65;;;;;;;;;;4975158;28;20437;-80
2023/03/17 08:23:29;;;;;;;9.55;3.90;;;;;;;;;;4976652;28;20440;-81
2023/03/17 08:25:58;;;;;;;9.75;3.70;;;;;;;;;;4974469;28;20439;-81
2023/03/17 08:28:31;;;;;;;7.85;3.80;;;;;;;;;;5003686;28;20429;-80
2023/03/17 08:31:07;;;;;;;10.05;4.15;;;;;;;;;;4968235;28;20445;-79
2023/03/17 08:33:36;;;;;;;9.90;4.18;;;;;;;;;;4969257;28;20707;-80
2023/03/17 08:36:10;;;;;;;6.83;3.57;;;;;;;;;;4970824;28;20532;-80
2023/03/17 08:38:38;;;;;;;7.30;3.75;;;;;;;;;;4979064;28;20777;-79
2023/03/17 08:41:07;;;;;;;8.17;4.07;;;;;;;;;;4972687;28;20446;-80
2023/03/17 08:43:40;;;;;;;8.35;3.80;;;;;;;;;;4977821;28;20941;-81
2023/03/17 08:46:10;;;;;;;8.25;3.90;;;;;;;;;;4974028;28;20429;-81
2023/03/17 08:48:45;;;;;;;9.88;3.85;;;;;;;;;;4989203;28;20433;-79
2023/03/17 08:51:19;;;;;;;9.18;3.70;;;;;;;;;;4975842;28;20444;-80
2023/03/17 08:53:52;;;;;;;8.88;3.88;;;;;;;;;;4976850;28;20428;-80
2023/03/17 08:56:25;;;;;;;8.68;4.03;;;;;;;;;;4977516;28;21091;-79
2023/03/17 08:58:59;;;;;;;8.15;3.65;;;;;;;;;;4995471;28;20449;-79
2023/03/17 09:01:33;;;;;;;7.53;3.80;;;;;;;;;;4971761;28;21218;-80
2023/03/17 09:04:07;;;;;;;8.50;4.00;;;;;;;;;;4996534;28;20439;-80
2023/03/17 09:06:40;;;;;;;6.72;3.38;;;;;;;;;;4976183;28;20422;-80
2023/03/17 09:09:08;;;;;;;8.35;3.60;;;;;;;;;;4972551;28;20444;-80
2023/03/17 09:11:42;;;;;;;7.93;3.95;;;;;;;;;;4979648;28;20433;-82
2023/03/17 09:14:14;;;;;;;8.07;3.90;;;;;;;;;;4984768;28;20436;-81
2023/03/17 09:16:48;;;;;;;7.53;3.53;;;;;;;;;;4970306;28;20467;-81
2023/03/17 09:19:22;;;;;;;8.60;3.90;;;;;;;;;;4995353;28;20936;-81
2023/03/17 09:21:55;;;;;;;7.55;3.78;;;;;;;;;;4985143;28;20437;-79
2023/03/17 09:24:23;;;;;;;7.47;3.55;;;;;;;;;;4982538;28;20448;-80
2023/03/17 09:26:52;;;;;;;8.40;3.60;;;;;;;;;;4971173;28;22530;-81
2023/03/17 09:29:26;;;;;;;7.18;3.22;;;;;;;;;;4972853;28;20472;-80
2023/03/17 09:31:59;;;;;;;7.78;3.60;;;;;;;;;;4978682;28;20440;-80
2023/03/17 09:34:34;;;;;;;8.25;4.00;;;;;;;;;;4972438;28;20437;-80
2023/03/17 09:37:08;;;;;;;8.93;3.75;;;;;;;;;;4969087;28;20589;-81
2023/03/17 09:39:41;;;;;;;8.48;3.65;;;;;;;;;;4973832;28;20440;-81
2023/03/17 09:42:17;;;;;;;9.00;4.00;;;;;;;;;;4977245;28;20454;-81
2023/03/17 09:44:57;;;;;;;8.38;3.88;;;;;;;;;;4972487;28;20444;-81
2023/03/17 09:47:39;;;;;;;8.48;3.78;;;;;;;;;;4971069;28;20441;-81
2023/03/17 09:50:15;;;;;;;7.30;3.58;;;;;;;;;;4975831;28;20442;-82
2023/03/17 09:52:50;;;;;;;8.68;3.85;;;;;;;;;;4992886;28;20816;-81
2023/03/17 09:55:26;;;;;;;8.37;3.70;;;;;;;;;;4973476;28;20430;-81
2023/03/17 09:57:55;;;;;;;7.47;3.47;;;;;;;;;;4984341;28;20571;-82
2023/03/17 10:00:29;;;;;;;7.67;3.60;;;;;;;;;;4977918;28;20432;-81
2023/03/17 10:03:02;;;;;;;7.15;3.58;;;;;;;;;;5002124;28;20432;-81
2023/03/17 10:05:37;;;;;;;8.48;3.60;;;;;;;;;;4979401;28;20436;-82
2023/03/17 10:08:14;;;;;;;7.72;3.55;;;;;;;;;;4997102;28;20444;-81
2023/03/17 10:10:49;;;;;;;7.82;3.20;;;;;;;;;;4992564;28;20442;-81
2023/03/17 10:13:22;;;;;;;8.15;3.20;;;;;;;;;;4976205;28;20439;-81
2023/03/17 10:15:51;;;;;;;7.25;3.42;;;;;;;;;;4974231;28;20451;-81
2023/03/17 10:18:23;;;;;;;7.88;3.63;;;;;;;;;;4974924;28;20419;-82
2023/03/17 10:20:54;;;;;;;8.35;3.78;;;;;;;;;;4981130;28;20452;-81
2023/03/17 10:23:28;;;;;;;8.32;3.70;;;;;;;;;;4974178;28;20432;-81
2023/03/17 10:26:05;;;;;;;8.63;3.55;;;;;;;;;;4971922;28;20432;-81
2023/03/17 10:28:39;;;;;;;7.93;3.60;;;;;;;;;;4970605;28;20444;-81
2023/03/17 10:31:14;;;;;;;7.97;3.47;;;;;;;;;;4990794;28;20440;-81
2023/03/17 10:33:49;;;;;;;7.47;3.55;;;;;;;;;;4971313;28;20433;-81
2023/03/17 10:36:35;;;;;;;7.20;3.60;;;;;;;;;;4981012;28;20442;-81
2023/03/17 10:39:11;;;;;;;8.00;3.20;;;;;;;;;;4971481;28;20559;-81
2023/03/17 10:41:40;;;;;;;7.15;3.22;;;;;;;;;;4971631;28;20442;-81
2023/03/17 10:44:20;;;;;;;7.63;3.15;;;;;;;;;;4976916;28;20918;-81
2023/03/17 10:46:54;;;;;;;7.65;3.25;;;;;;;;;;4975384;28;20437;-81
2023/03/17 10:49:24;;;;;;;6.97;3.20;;;;;;;;;;4970625;28;20428;-81
2023/03/17 10:51:58;;;;;;;7.32;3.00;;;;;;;;;;4978593;28;20437;-83
2023/03/17 10:54:27;;;;;;;7.80;2.88;;;;;;;;;;4973528;28;20445;-80
2023/03/17 10:57:01;;;;;;;7.65;3.25;;;;;;;;;;4974196;28;20440;-80
2023/03/17 10:59:38;;;;;;;12.35;6.70;;;;;;;;;;4979310;28;20436;-81
2023/03/17 11:02:18;;;;;;;8.90;4.00;;;;;;;;;;4974277;28;20433;-81
2023/03/17 11:04:53;;;;;;;8.05;4.15;;;;;;;;;;4974673;28;20450;-81
2023/03/17 11:07:30;;;;;;;6.65;3.50;;;;;;;;;;4975614;28;20487;-81
2023/03/17 11:10:03;;;;;;;8.18;3.53;;;;;;;;;;4994273;28;21741;-80
2023/03/17 11:12:38;;;;;;;7.65;3.10;;;;;;;;;;4988290;28;20441;-82
2023/03/17 11:15:13;;;;;;;7.18;3.42;;;;;;;;;;4970870;28;20445;-81
2023/03/17 11:17:51;;;;;;;9.05;3.70;;;;;;;;;;4974669;28;20437;-81
2023/03/17 11:20:40;;;;;;;7.28;3.65;;;;;;;;;;4976708;28;20444;-80
2023/03/17 11:23:14;;;;;;;6.32;3.20;;;;;;;;;;4996985;28;20429;-81
2023/03/17 11:25:49;;;;;;;7.35;3.60;;;;;;;;;;4979772;28;20454;-81
2023/03/17 11:28:23;;;;;;;6.75;3.22;;;;;;;;;;4976422;28;20438;-81
2023/03/17 11:30:57;;;;;;;7.47;3.53;;;;;;;;;;4970606;28;20432;-82
2023/03/17 11:33:33;;;;;;;7.28;3.20;;;;;;;;;;4972665;28;20440;-82
2023/03/17 11:36:03;;;;;;;7.18;3.50;;;;;;;;;;4973756;28;20441;-81
2023/03/17 11:38:40;;;;;;;7.85;3.38;;;;;;;;;;4973268;28;20440;-80
2023/03/17 11:41:28;;;;;;;8.57;3.58;;;;;;;;;;4974763;28;20449;-81
2023/03/17 11:44:13;;;;;;;8.25;3.75;;;;;;;;;;4994425;28;20440;-82
2023/03/17 11:46:46;;;;;;;6.75;3.55;;;;;;;;;;4973514;28;20440;-81
2023/03/17 11:49:21;;;;;;;7.10;3.40;;;;;;;;;;4978194;28;20433;-80
2023/03/17 11:51:58;;;;;;;7.78;3.17;;;;;;;;;;4973294;28;20470;-82
2023/03/17 11:54:37;;;;;;;6.85;3.03;;;;;;;;;;4976912;28;20436;-81
2023/03/17 11:57:12;;;;;;;6.55;2.85;;;;;;;;;;4973300;28;20442;-80
2023/03/17 11:59:46;;;;;;;6.93;2.92;;;;;;;;;;4974575;28;20576;-81
2023/03/17 12:02:18;;;;;;;6.05;2.72;;;;;;;;;;4979328;28;20439;-81
2023/03/17 12:04:54;;;;;;;7.57;2.90;;;;;;;;;;4983518;28;20424;-81
2023/03/17 12:07:23;;;;;;;7.22;3.00;;;;;;;;;;4971362;28;20438;-82
2023/03/17 12:10:05;;;;;;;6.60;3.00;;;;;;;;;;4979374;28;20428;-81
2023/03/17 12:12:41;;;;;;;7.55;2.88;;;;;;;;;;4994725;28;20439;-80
2023/03/17 12:15:17;;;;;;;7.10;3.00;;;;;;;;;;4968693;28;20459;-81
2023/03/17 12:17:52;;;;;;;6.50;3.05;;;;;;;;;;4981663;28;20433;-81
2023/03/17 12:20:29;;;;;;;5.68;2.75;;;;;;;;;;4977569;28;20426;-81
2023/03/17 12:23:04;;;;;;;7.03;3.17;;;;;;;;;;4969539;28;20433;-81
2023/03/17 12:25:35;;;;;;;6.10;2.90;;;;;;;;;;4977884;28;20444;-80
2023/03/17 12:28:11;;;;;;;6.30;2.78;;;;;;;;;;4983325;28;21641;-81
2023/03/17 12:30:44;;;;;;;8.68;3.42;;;;;;;;;;4978389;28;20428;-80
2023/03/17 12:33:21;;;;;;;6.68;3.00;;;;;;;;;;4982449;28;20905;-80
2023/03/17 12:35:54;;;;;;;5.07;2.47;;;;;;;;;;4971489;28;20426;-81
2023/03/17 12:38:31;;;;;;;7.03;2.87;;;;;;;;;;5000055;28;22152;-80
2023/03/17 12:41:17;;;;;;;7.40;3.05;;;;;;;;;;4978501;28;20451;-81
2023/03/17 12:43:52;;;;;;;6.25;2.70;;;;;;;;;;4970580;28;20432;-82
2023/03/17 12:46:27;;;;;;;6.00;2.63;;;;;;;;;;4973913;28;20420;-81
2023/03/17 12:49:13;;;;;;;5.03;2.30;;;;;;;;;;4975764;28;20976;-80
2023/03/17 12:51:51;;;;;;;5.38;2.60;;;;;;;;;;4976073;28;20465;-80
2023/03/17 12:54:26;;;;;;;6.10;2.42;;;;;;;;;;4992209;28;20438;-80
2023/03/17 12:56:59;;;;;;;7.00;2.95;;;;;;;;;;4975504;28;20475;-81
2023/03/17 12:59:30;;;;;;;5.25;2.53;;;;;;;;;;4978898;28;20785;-82
2023/03/17 13:02:14;;;;;;;6.88;3.40;;;;;;;;;;4991045;28;20426;-80
2023/03/17 13:04:47;;;;;;;7.17;2.50;;;;;;;;;;4977924;28;20438;-80
2023/03/17 13:07:22;;;;;;;6.90;2.50;;;;;;;;;;4981305;28;20850;-80
2023/03/17 13:10:12;;;;;;;9.47;3.40;;;;;;;;;;4977330;28;20440;-79
2023/03/17 13:13:04;;;;;;;5.93;2.70;;;;;;;;;;5013488;28;20437;-81
2023/03/17 13:15:54;;;;;;;5.60;2.40;;;;;;;;;;5000582;28;20441;-80
2023/03/17 13:18:45;;;;;;;5.00;2.40;;;;;;;;;;5002112;28;20438;-81
2023/03/17 13:21:15;;;;;;;5.55;2.70;;;;;;;;;;5002298;28;20446;-80
2023/03/17 13:23:43;;;;;;;6.38;2.70;;;;;;;;;;5019535;28;20418;-81
2023/03/17 13:26:19;;;;;;;6.47;2.60;;;;;;;;;;5008788;28;20431;-80
2023/03/17 13:28:51;;;;;;;5.85;2.70;;;;;;;;;;5003200;28;24655;-80
2023/03/17 13:31:36;;;;;;;6.90;2.72;;;;;;;;;;5018115;28;20427;-79
2023/03/17 13:34:14;;;;;;;6.10;2.75;;;;;;;;;;5006948;28;20434;-80
2023/03/17 13:36:49;;;;;;;6.40;2.95;;;;;;;;;;5003270;28;20442;-82
2023/03/17 13:39:38;;;;;;;5.57;2.40;;;;;;;;;;5010298;28;20930;-81
2023/03/17 13:42:38;;;;;;;5.68;2.58;;;;;;;;;;5003046;28;20419;-80
2023/03/17 13:45:25;;;;;;;6.47;2.83;;;;;;;;;;4949527;28;20907;-81
2023/03/17 13:48:20;;;;;;;5.93;2.55;;;;;;;;;;5004189;28;20423;-81
2023/03/17 13:50:53;;;;;;;6.63;2.90;;;;;;;;;;5003352;28;20433;-81
2023/03/17 13:53:23;;;;;;;6.33;2.60;;;;;;;;;;5008653;28;20454;-80
2023/03/17 13:56:10;;;;;;;6.68;2.60;;;;;;;;;;5006344;28;20446;-82
2023/03/17 13:58:57;;;;;;;5.03;2.40;;;;;;;;;;5011604;28;20419;-81
2023/03/17 14:01:26;;;;;;;6.15;2.67;;;;;;;;;;5003462;28;20431;-81
2023/03/17 14:04:02;;;;;;;7.50;2.53;;;;;;;;;;5008640;28;20473;-81
2023/03/17 14:06:37;;;;;;;5.57;2.50;;;;;;;;;;5003309;28;20439;-81
2023/03/17 14:09:08;;;;;;;5.68;2.53;;;;;;;;;;4997494;28;20474;-81
2023/03/17 14:11:45;;;;;;;5.78;2.65;;;;;;;;;;5009701;28;20431;-81
2023/03/17 14:14:20;;;;;;;6.35;2.88;;;;;;;;;;4981320;28;20432;-82
2023/03/17 14:16:52;;;;;;;5.40;2.40;;;;;;;;;;4981664;28;20432;-80
2023/03/17 14:19:27;;;;;;;5.50;2.45;;;;;;;;;;4982227;28;20417;-82
2023/03/17 14:22:04;;;;;;;5.32;2.50;;;;;;;;;;4980177;28;20445;-81
2023/03/17 14:24:36;;;;;;;5.72;2.42;;;;;;;;;;4989440;28;20435;-81
2023/03/17 14:27:06;;;;;;;7.28;2.70;;;;;;;;;;4988887;28;20432;-80
2023/03/17 14:29:39;;;;;;;6.10;2.50;;;;;;;;;;4986367;28;20421;-82
2023/03/17 14:32:13;;;;;;;6.68;2.50;;;;;;;;;;4981284;28;20432;-80
2023/03/17 14:34:51;;;;;;;5.22;2.25;;;;;;;;;;4983130;28;20443;-82
2023/03/17 14:37:24;;;;;;;6.50;2.37;;;;;;;;;;4978020;28;20536;-81
2023/03/17 14:39:58;;;;;;;5.70;2.47;;;;;;;;;;4977140;28;20443;-81
2023/03/17 14:42:31;;;;;;;5.63;2.53;;;;;;;;;;4985142;28;20468;-80
2023/03/17 14:45:05;;;;;;;5.70;2.60;;;;;;;;;;4985365;28;20444;-80
2023/03/17 14:47:39;;;;;;;6.03;2.70;;;;;;;;;;4979645;28;20437;-80
2023/03/17 14:50:14;;;;;;;7.40;3.67;;;;;;;;;;4981728;28;20437;-80
2023/03/17 14:52:49;;;;;;;5.47;2.60;;;;;;;;;;4991264;28;20428;-83
2023/03/17 14:55:22;;;;;;;7.20;2.65;;;;;;;;;;4983553;28;20435;-81
2023/03/17 14:57:55;;;;;;;5.23;2.57;;;;;;;;;;4978744;28;20428;-80
2023/03/17 15:00:32;;;;;;;5.30;2.30;;;;;;;;;;4975425;28;21476;-80
2023/03/17 15:03:16;;;;;;;5.30;2.40;;;;;;;;;;4975475;28;20515;-81
2023/03/17 15:05:51;;;;;;;5.97;2.55;;;;;;;;;;4978011;28;20436;-81
2023/03/17 15:08:41;;;;;;;5.47;2.40;;;;;;;;;;4975149;28;20440;-81
2023/03/17 15:11:24;;;;;;;6.43;2.80;;;;;;;;;;4979908;28;20447;-81
2023/03/17 15:14:06;;;;;;;7.07;2.42;;;;;;;;;;4955454;28;20428;-81
2023/03/17 15:16:39;;;;;;;4.88;2.30;;;;;;;;;;4976472;28;20440;-81
2023/03/17 15:19:08;;;;;;;7.17;2.77;;;;;;;;;;4972006;28;20432;-82